CheckWX is a tool to help pilots better visualize weather data.  It is not intended as a substitute for an official pre-flight weather briefing.

17:00:32 UTC

VTSP METAR
Phuket International Airport
Phuket, Thailand
Current

31 mins ago

VTSP 191630Z 30004KT 260V320 9000 SCT020 27/23 Q1014 NOSIG
Observed
Sep-19 @ 16:30 UTC
Wind
  • 300° at 4 KTS
Visibility
9,000 meters
Flight Rules
VFR
Cloud Levels
  • Scattered at 2,000' AGL
Temperature
27°C / 81°F
Dewpoint
23°C / 73°F
Heat Index
30°C / 86°F
Humidity
79%
Altimeter
29.94" Hg
Pressure
1013.92 hPa
Previous

1 hour ago

VTSP 191600Z 28004KT 240V360 9000 FEW020 27/23 Q1014 NOSIG
Observed
Sep-19 @ 16:00 UTC
Wind
  • 280° at 4 KTS
Visibility
9,000 meters
Flight Rules
VFR
Cloud Levels
  • Few at 2,000' AGL
Temperature
27°C / 81°F
Dewpoint
23°C / 73°F
Heat Index
30°C / 86°F
Humidity
79%
Altimeter
29.94" Hg
Pressure
1013.92 hPa
Previous

2 hours ago

VTSP 191530Z 28003KT 260V320 9000 FEW020 26/23 Q1014 NOSIG
Observed
Sep-19 @ 15:30 UTC
Wind
  • 280° at 3 KTS
Visibility
9,000 meters
Flight Rules
VFR
Cloud Levels
  • Few at 2,000' AGL
Temperature
26°C / 79°F
Dewpoint
23°C / 73°F
Humidity
84%
Altimeter
29.94" Hg
Pressure
1013.92 hPa